Time;durP1;ratioP1;P1;durP2;ratioP2;P2;SDS_P1;SDS_P2;PMS_P1;PMS_P2;Temp;Humidity;BMP_temperature;BMP_pressure;BME280_temperature;BME280_humidity;BME280_pressure;Samples;Min_cycle;Max_cycle;Signal;HPM_P1;HPM_P2
2021/12/25 15:52:25;;;;;;;48.50;20.97;;;;;;;;;;5113155;27;21081;-69
2021/12/25 15:54:51;;;;;;;56.33;23.87;;;;;;;;;;5118171;28;20430;-63
2021/12/25 15:57:17;;;;;;;60.27;28.20;;;;;;;;;;5127161;28;20459;-66
2021/12/25 15:59:44;;;;;;;66.00;25.90;;;19.60;57.00;;;;;;5127081;27;20406;-67
2021/12/25 16:02:13;;;;;;;72.37;28.50;;;18.90;54.80;;;;;;5126853;27;20434;-69
2021/12/25 16:04:39;;;;;;;89.00;36.33;;;;;;;;;;5127709;27;20427;-67
2021/12/25 16:07:06;;;;;;;103.53;41.30;;;19.50;57.70;;;;;;5127835;27;20399;-66
2021/12/25 16:09:32;;;;;;;105.13;43.70;;;;;;;;;;5127637;27;20428;-65
2021/12/25 16:11:59;;;;;;;98.53;43.93;;;;;;;;;;5115252;28;20455;-65
2021/12/25 16:14:26;;;;;;;126.40;52.53;;;21.10;55.00;;;;;;5106898;28;20505;-65
2021/12/25 16:16:59;;;;;;;123.47;45.00;;;19.50;69.60;;;;;;5106822;28;20415;-66
2021/12/25 16:19:25;;;;;;;124.37;51.70;;;19.80;68.10;;;;;;5106891;28;20408;-67
2021/12/25 16:21:51;;;;;;;115.00;47.07;;;;;;;;;;5103127;28;20531;-67
2021/12/25 16:24:17;;;;;;;123.10;46.07;;;;;;;;;;5117661;27;20435;-66
2021/12/25 16:26:43;;;;;;;115.27;46.60;;;19.80;54.10;;;;;;5125810;27;20502;-67
2021/12/25 16:29:09;;;;;;;104.80;44.20;;;;;;;;;;5126723;27;20468;-67
2021/12/25 16:31:37;;;;;;;113.13;47.50;;;;;;;;;;5127807;27;20958;-66
2021/12/25 16:34:05;;;;;;;110.37;48.33;;;19.50;53.90;;;;;;5128070;27;20423;-67
2021/12/25 16:36:32;;;;;;;125.17;48.83;;;20.10;60.70;;;;;;5116248;27;20447;-67
2021/12/25 16:39:01;;;;;;;120.03;49.60;;;19.60;56.40;;;;;;5106710;28;20525;-69
2021/12/25 16:41:27;;;;;;;113.40;47.57;;;;;;;;;;5107028;28;20490;-66
2021/12/25 16:43:53;;;;;;;117.83;49.20;;;;;;;;;;5106080;28;20483;-68
2021/12/25 16:46:19;;;;;;;114.70;48.87;;;20.10;68.00;;;;;;5105533;28;20481;-67
2021/12/25 16:48:44;;;;;;;129.23;51.83;;;19.60;60.80;;;;;;5105244;28;20892;-68
2021/12/25 16:51:12;;;;;;;104.90;47.00;;;19.90;56.50;;;;;;5103044;28;20206;-69
2021/12/25 16:53:38;;;;;;;122.03;50.20;;;;;;;;;;5110954;28;20559;-68
2021/12/25 16:56:04;;;;;;;108.20;47.67;;;;;;;;;;5125728;28;20395;-65
2021/12/25 16:58:30;;;;;;;114.97;47.17;;;20.10;65.00;;;;;;5125765;28;20391;-67
2021/12/25 17:00:56;;;;;;;106.63;40.73;;;;;;;;;;5125428;27;20434;-64
2021/12/25 17:03:22;;;;;;;81.17;36.97;;;;;;;;;;5114241;27;20185;-67
2021/12/25 17:05:49;;;;;;;84.00;36.10;;;19.90;53.20;;;;;;5111570;28;20404;-67
2021/12/25 17:08:15;;;;;;;89.53;37.03;;;;;;;;;;5112054;28;20844;-64
2021/12/25 17:10:41;;;;;;;75.93;33.77;;;;;;;;;;5111358;28;20447;-64
2021/12/25 17:13:08;;;;;;;66.10;31.83;;;20.10;74.20;;;;;;5091277;28;20415;-64
2021/12/25 17:15:37;;;;;;;70.50;34.03;;;19.90;53.00;;;;;;5091345;28;20401;-64
2021/12/25 17:18:04;;;;;;;83.97;36.17;;;19.90;53.20;;;;;;5091452;28;20911;-63
2021/12/25 17:20:33;;;;;;;73.73;33.10;;;19.90;53.20;;;;;;5091371;28;20412;-63
2021/12/25 17:22:59;;;;;;;69.60;31.67;;;19.90;52.90;;;;;;5093746;28;20468;-65
2021/12/25 17:25:26;;;;;;;65.97;31.47;;;19.70;69.10;;;;;;5106415;28;20479;-66
2021/12/25 17:27:53;;;;;;;69.53;30.23;;;19.90;52.80;;;;;;5111773;28;20745;-64
2021/12/25 17:30:27;;;;;;;60.00;28.17;;;19.60;53.30;;;;;;5111433;28;20408;-65
2021/12/25 17:32:53;;;;;;;59.57;26.67;;;20.10;71.60;;;;;;5111456;28;20423;-65
2021/12/25 17:35:19;;;;;;;54.60;27.90;;;;;;;;;;5110829;28;20427;-65
2021/12/25 17:37:46;;;;;;;53.23;24.90;;;19.70;65.90;;;;;;5090773;28;20917;-65
2021/12/25 17:40:14;;;;;;;52.73;25.00;;;19.90;52.70;;;;;;5090795;28;20441;-65
2021/12/25 17:42:43;;;;;;;52.10;23.43;;;19.90;52.50;;;;;;5090662;28;20507;-65
2021/12/25 17:45:14;;;;;;;56.53;24.33;;;19.90;66.80;;;;;;5090722;28;20935;-65
2021/12/25 17:47:40;;;;;;;49.57;23.80;;;19.60;70.90;;;;;;5090766;28;20546;-65
2021/12/25 17:50:14;;;;;;;53.17;25.63;;;19.80;69.60;;;;;;5090715;28;20921;-65
2021/12/25 17:52:40;;;;;;;47.70;23.30;;;;;;;;;;5093064;28;20190;-65
2021/12/25 17:55:09;;;;;;;52.03;23.73;;;19.60;52.80;;;;;;5102792;28;20450;-65
2021/12/25 17:57:34;;;;;;;51.33;22.57;;;20.10;65.70;;;;;;5110848;28;20815;-65
2021/12/25 18:00:00;;;;;;;51.83;24.03;;;19.70;59.30;;;;;;5111138;28;20418;-65
2021/12/25 18:02:26;;;;;;;48.13;24.17;;;20.00;67.90;;;;;;5110835;28;20174;-65
2021/12/25 18:04:51;;;;;;;48.77;22.17;;;19.80;54.50;;;;;;5093432;28;20212;-65
2021/12/25 18:07:17;;;;;;;52.30;21.43;;;;;;;;;;5103985;28;20188;-65
2021/12/25 18:09:43;;;;;;;51.20;25.70;;;20.00;72.90;;;;;;5110605;28;20178;-66
2021/12/25 18:12:10;;;;;;;46.37;22.50;;;20.10;71.50;;;;;;5097402;28;20501;-67
2021/12/25 18:14:37;;;;;;;46.33;22.53;;;20.00;52.30;;;;;;5088879;28;20193;-64
2021/12/25 18:17:05;;;;;;;37.80;19.30;;;19.80;54.90;;;;;;5090091;28;20405;-64
2021/12/25 18:19:31;;;;;;;35.93;17.83;;;20.00;71.90;;;;;;5089848;28;20447;-66
2021/12/25 18:21:57;;;;;;;36.37;17.67;;;19.90;67.80;;;;;;5087059;28;20451;-64
2021/12/25 18:24:23;;;;;;;48.07;22.00;;;;;;;;;;5101549;28;20202;-66
2021/12/25 18:26:49;;;;;;;48.73;21.87;;;;;;;;;;5110357;28;20177;-66
2021/12/25 18:29:15;;;;;;;35.90;18.20;;;;;;;;;;5110269;28;20456;-65
2021/12/25 18:31:41;;;;;;;33.80;17.40;;;;;;;;;;5109878;28;20455;-64
2021/12/25 18:34:07;;;;;;;31.63;15.93;;;19.90;65.40;;;;;;5110156;28;20952;-64
2021/12/25 18:36:32;;;;;;;40.70;19.10;;;20.10;68.20;;;;;;5098973;28;20416;-65
2021/12/25 18:39:00;;;;;;;30.87;15.90;;;19.90;72.30;;;;;;5089641;28;20265;-65
2021/12/25 18:41:30;;;;;;;31.67;16.00;;;20.10;52.60;;;;;;5089515;28;20186;-68
2021/12/25 18:44:00;;;;;;;32.97;15.53;;;20.20;64.80;;;;;;5089239;28;20428;-67
2021/12/25 18:46:26;;;;;;;34.87;14.93;;;20.10;52.50;;;;;;5089349;28;20496;-65
2021/12/25 18:48:54;;;;;;;39.93;18.07;;;;;;;;;;5089377;28;20876;-65
2021/12/25 18:51:20;;;;;;;39.27;18.90;;;;;;;;;;5085728;28;21014;-66
2021/12/25 18:53:46;;;;;;;36.90;17.53;;;;;;;;;;5096771;28;20507;-65
2021/12/25 18:56:12;;;;;;;35.97;17.37;;;;;;;;;;5109784;28;20795;-67
2021/12/25 18:58:38;;;;;;;30.13;13.80;;;20.40;71.50;;;;;;5109678;28;20460;-66
2021/12/25 19:01:04;;;;;;;33.50;15.40;;;19.90;59.20;;;;;;5109794;28;20900;-67
2021/12/25 19:03:30;;;;;;;33.37;15.50;;;;;;;;;;5109563;28;20325;-67
2021/12/25 19:05:59;;;;;;;33.70;15.97;;;20.10;60.10;;;;;;5109724;28;20170;-67
2021/12/25 19:08:25;;;;;;;30.20;15.13;;;20.20;53.30;;;;;;5109689;28;20419;-67
2021/12/25 19:10:52;;;;;;;32.97;16.57;;;19.70;52.30;;;;;;5107463;28;20475;-66
2021/12/25 19:13:19;;;;;;;27.50;13.80;;;;;;;;;;5087556;28;20477;-64
2021/12/25 19:15:50;;;;;;;28.03;13.73;;;20.10;52.30;;;;;;5089072;28;20497;-67
2021/12/25 19:18:16;;;;;;;29.13;13.90;;;;;;;;;;5089296;28;20424;-70
2021/12/25 19:20:44;;;;;;;28.37;12.97;;;20.10;52.40;;;;;;5088725;28;20408;-66
2021/12/25 19:23:11;;;;;;;27.97;13.43;;;20.10;52.40;;;;;;5097425;28;20415;-67
2021/12/25 19:25:37;;;;;;;27.13;12.90;;;20.20;52.40;;;;;;5106100;28;20504;-67
2021/12/25 19:28:04;;;;;;;28.30;12.43;;;20.00;63.80;;;;;;5109595;28;20436;-69
2021/12/25 19:30:34;;;;;;;33.73;14.10;;;20.20;61.80;;;;;;5109610;28;20454;-65
2021/12/25 19:33:00;;;;;;;27.27;13.03;;;20.10;69.50;;;;;;5109746;28;20415;-68
2021/12/25 19:35:25;;;;;;;26.80;13.47;;;20.40;72.80;;;;;;5109385;28;20499;-68
2021/12/25 19:37:52;;;;;;;27.23;13.40;;;20.40;72.80;;;;;;5109683;28;20249;-68
2021/12/25 19:40:22;;;;;;;24.10;12.27;;;20.50;62.90;;;;;;5109244;28;20174;-68
2021/12/25 19:42:48;;;;;;;29.40;13.63;;;20.30;52.40;;;;;;5109115;28;20708;-68
2021/12/25 19:45:18;;;;;;;23.17;12.80;;;20.20;52.50;;;;;;5108967;28;20452;-68
2021/12/25 19:47:44;;;;;;;29.63;12.73;;;;;;;;;;5109167;28;20763;-67
2021/12/25 19:50:14;;;;;;;23.13;12.47;;;20.20;67.10;;;;;;5108679;28;20932;-67
2021/12/25 19:52:43;;;;;;;28.20;11.03;;;20.50;55.10;;;;;;5097375;28;20411;-67
2021/12/25 19:55:10;;;;;;;25.73;12.60;;;20.30;66.90;;;;;;5095741;28;20812;-67
2021/12/25 19:57:36;;;;;;;22.60;10.50;;;20.10;67.00;;;;;;5068611;28;20414;-69
2021/12/25 20:00:05;;;;;;;23.07;11.80;;;20.10;71.50;;;;;;5068210;28;20865;-66
2021/12/25 20:02:31;;;;;;;22.77;12.23;;;20.20;58.20;;;;;;5067166;28;20175;-68
2021/12/25 20:04:57;;;;;;;23.07;11.23;;;20.40;60.40;;;;;;5068084;28;20430;-68
2021/12/25 20:07:23;;;;;;;19.30;10.97;;;;;;;;;;5068464;28;20534;-67
2021/12/25 20:09:48;;;;;;;24.70;11.30;;;20.20;57.70;;;;;;5068452;28;20176;-66
2021/12/25 20:12:14;;;;;;;28.63;13.07;;;20.20;69.30;;;;;;5094843;28;20459;-68
2021/12/25 20:14:40;;;;;;;26.07;11.43;;;20.30;67.50;;;;;;5108652;28;20194;-67
2021/12/25 20:17:06;;;;;;;22.77;11.23;;;20.00;66.70;;;;;;5108581;28;20174;-67
2021/12/25 20:19:32;;;;;;;16.13;9.07;;;;;;;;;;5108505;28;20507;-67
2021/12/25 20:21:58;;;;;;;19.87;10.40;;;20.30;66.30;;;;;;5096922;28;20255;-68
2021/12/25 20:24:24;;;;;;;21.23;11.00;;;;;;;;;;5100176;28;20947;-66
2021/12/25 20:26:49;;;;;;;25.07;11.63;;;20.00;61.50;;;;;;5108750;28;20268;-65
2021/12/25 20:29:17;;;;;;;20.37;10.20;;;;;;;;;;5108695;28;20429;-64
2021/12/25 20:31:43;;;;;;;19.30;10.47;;;20.20;59.70;;;;;;5108767;28;20202;-66
2021/12/25 20:34:08;;;;;;;21.33;9.83;;;20.30;71.00;;;;;;5108749;28;20431;-67
2021/12/25 20:36:34;;;;;;;17.60;9.40;;;20.00;69.70;;;;;;5097380;28;20416;-68
2021/12/25 20:39:00;;;;;;;16.80;9.43;;;20.40;70.30;;;;;;5091621;28;20225;-68
2021/12/25 20:41:26;;;;;;;17.93;9.03;;;20.30;66.90;;;;;;5091978;28;20408;-69
2021/12/25 20:46:38;;;;;;;15.00;8.70;;;20.40;67.00;;;;;;5092352;28;20181;-67
2021/12/25 20:49:04;;;;;;;24.40;11.37;;;20.20;66.50;;;;;;5091902;28;20412;-67
2021/12/25 20:51:30;;;;;;;15.77;8.90;;;;;;;;;;5086877;28;20654;-66
2021/12/25 20:53:56;;;;;;;13.00;8.37;;;20.50;67.00;;;;;;5101022;28;20203;-74
2021/12/25 20:56:22;;;;;;;16.40;9.07;;;20.30;55.80;;;;;;5112412;28;20762;-71
2021/12/25 20:58:49;;;;;;;14.53;8.23;;;;;;;;;;5112456;28;20258;-71
2021/12/25 21:01:16;;;;;;;13.83;8.27;;;20.50;55.20;;;;;;5112429;28;20416;-71
2021/12/25 21:03:43;;;;;;;19.43;9.47;;;;;;;;;;5112367;28;20919;-72
2021/12/25 21:06:09;;;;;;;16.33;8.50;;;20.50;70.90;;;;;;5112260;28;20427;-71
2021/12/25 21:08:36;;;;;;;13.90;8.20;;;20.30;71.90;;;;;;5112137;28;20461;-72
2021/12/25 21:11:04;;;;;;;16.00;9.33;;;20.40;71.90;;;;;;5108626;28;20456;-69
2021/12/25 21:13:30;;;;;;;17.30;8.30;;;;;;;;;;5110496;28;20420;-69
2021/12/25 21:15:55;;;;;;;15.67;8.47;;;20.20;66.30;;;;;;5091311;28;20420;-69
2021/12/25 21:18:21;;;;;;;13.70;7.47;;;20.20;71.00;;;;;;5091799;28;20409;-69
2021/12/25 21:20:48;;;;;;;12.30;7.60;;;20.30;51.80;;;;;;5091610;28;20171;-69
2021/12/25 21:23:15;;;;;;;15.73;8.00;;;20.60;70.00;;;;;;5094198;28;20247;-71
2021/12/25 21:25:41;;;;;;;17.83;8.40;;;20.30;71.30;;;;;;5109548;28;20412;-69
2021/12/25 21:28:07;;;;;;;12.27;7.67;;;20.20;69.30;;;;;;5112616;28;20468;-69
2021/12/25 21:30:33;;;;;;;13.87;7.20;;;20.50;71.00;;;;;;5112547;28;20230;-68
2021/12/25 21:32:59;;;;;;;10.50;7.07;;;20.50;69.50;;;;;;5112831;28;20178;-70
2021/12/25 21:35:29;;;;;;;14.20;7.23;;;20.30;51.60;;;;;;5106952;28;20575;-70
2021/12/25 21:37:56;;;;;;;9.43;6.67;;;20.30;51.80;;;;;;5091864;28;20171;-70
2021/12/25 21:40:23;;;;;;;12.83;7.13;;;20.20;66.30;;;;;;5086550;28;20905;-70
2021/12/25 21:42:49;;;;;;;12.87;7.17;;;20.20;66.20;;;;;;5090222;28;20412;-69
2021/12/25 21:45:17;;;;;;;11.47;6.40;;;20.20;66.10;;;;;;5091525;28;20439;-69
2021/12/25 21:47:42;;;;;;;8.40;6.60;;;20.40;65.70;;;;;;5091664;28;20436;-70
2021/12/25 21:50:11;;;;;;;10.40;6.10;;;20.20;65.80;;;;;;5090828;28;20436;-71
2021/12/25 21:52:37;;;;;;;12.87;7.47;;;;;;;;;;5089446;28;20544;-70
2021/12/25 21:55:09;;;;;;;11.17;6.33;;;20.20;71.00;;;;;;5090850;28;20850;-69
2021/12/25 21:57:35;;;;;;;11.23;6.60;;;20.30;51.60;;;;;;5021948;28;20447;-67
2021/12/25 22:00:04;;;;;;;10.47;6.63;;;20.30;61.70;;;;;;5050171;28;20410;-67
2021/12/25 22:02:29;;;;;;;10.00;5.80;;;20.40;68.80;;;;;;5051047;28;20751;-67
2021/12/25 22:04:57;;;;;;;10.40;6.20;;;20.30;65.80;;;;;;5051057;28;20494;-69
2021/12/25 22:07:27;;;;;;;8.73;5.90;;;20.50;71.30;;;;;;5050602;28;20570;-68
2021/12/25 22:09:57;;;;;;;9.83;6.13;;;20.20;65.80;;;;;;5050469;28;20468;-72
2021/12/25 22:12:22;;;;;;;8.17;5.77;;;20.30;70.60;;;;;;5050638;28;20470;-70
2021/12/25 22:14:48;;;;;;;10.17;6.90;;;20.50;67.60;;;;;;5050274;28;20529;-68
2021/12/25 22:17:14;;;;;;;9.37;6.37;;;20.30;66.00;;;;;;5050606;28;20179;-72
2021/12/25 22:19:40;;;;;;;10.23;6.67;;;20.60;66.20;;;;;;5049347;28;20577;-68
2021/12/25 22:22:06;;;;;;;8.53;5.80;;;20.40;65.90;;;;;;5051215;28;20179;-68
2021/12/25 22:24:32;;;;;;;10.00;5.17;;;;;;;;;;5050774;28;20211;-73
2021/12/25 22:26:58;;;;;;;12.33;6.23;;;20.20;65.70;;;;;;5045972;28;20505;-73
2021/12/25 22:29:24;;;;;;;8.50;5.57;;;20.60;69.20;;;;;;5050569;28;20802;-72
2021/12/25 22:31:50;;;;;;;11.27;6.73;;;20.20;68.20;;;;;;5050232;28;20290;-72
2021/12/25 22:34:16;;;;;;;11.00;6.10;;;;;;;;;;5050281;28;20481;-72
2021/12/25 22:36:42;;;;;;;9.07;5.70;;;;;;;;;;5050104;28;20469;-68
2021/12/25 22:39:08;;;;;;;9.20;5.53;;;20.50;71.80;;;;;;5050043;28;20443;-68
2021/12/25 22:41:34;;;;;;;10.43;6.00;;;20.60;66.10;;;;;;5049833;28;20879;-70
2021/12/25 22:44:00;;;;;;;7.10;5.90;;;;;;;;;;5049818;28;20464;-71
2021/12/25 22:46:26;;;;;;;8.07;5.20;;;20.40;51.50;;;;;;5050186;28;20186;-69
2021/12/25 22:48:52;;;;;;;5.60;4.40;;;20.30;66.40;;;;;;5049784;28;20488;-69
2021/12/25 22:51:19;;;;;;;8.27;5.47;;;20.60;66.20;;;;;;5049508;28;20481;-69
2021/12/25 22:53:45;;;;;;;5.87;4.40;;;20.40;70.60;;;;;;5049534;28;20662;-69
2021/12/25 22:56:11;;;;;;;6.30;4.13;;;20.60;66.60;;;;;;5044671;28;20490;-69
2021/12/25 22:58:37;;;;;;;12.23;6.00;;;20.40;65.80;;;;;;5045028;28;20713;-69
2021/12/25 23:01:08;;;;;;;12.40;5.60;;;21.00;70.60;;;;;;5049351;28;20820;-69
2021/12/25 23:03:35;;;;;;;8.67;5.90;;;20.20;70.20;;;;;;5049887;28;20514;-69
2021/12/25 23:06:02;;;;;;;7.77;4.60;;;20.50;65.60;;;;;;5049504;28;20501;-69
2021/12/25 23:08:31;;;;;;;9.70;5.33;;;20.40;70.60;;;;;;5030415;28;20961;-69
2021/12/25 23:10:59;;;;;;;7.23;4.80;;;20.10;70.20;;;;;;5030930;28;20470;-70
2021/12/25 23:13:26;;;;;;;8.17;4.80;;;20.30;69.70;;;;;;5029128;28;20423;-69
2021/12/25 23:15:53;;;;;;;8.70;5.70;;;20.30;51.50;;;;;;5029011;28;20415;-70
2021/12/25 23:18:20;;;;;;;9.57;5.33;;;20.30;70.90;;;;;;5029235;28;20497;-68
2021/12/25 23:20:48;;;;;;;9.63;5.00;;;20.50;65.70;;;;;;5029428;28;20407;-69
2021/12/25 23:23:15;;;;;;;7.03;5.10;;;20.30;65.30;;;;;;5030711;28;20518;-69
2021/12/25 23:25:41;;;;;;;5.50;4.40;;;20.00;65.40;;;;;;5049497;28;20732;-68
2021/12/25 23:28:09;;;;;;;9.20;4.67;;;20.20;51.50;;;;;;5050021;28;20537;-69
2021/12/25 23:30:37;;;;;;;10.07;4.90;;;20.20;51.50;;;;;;5028931;28;20451;-68
2021/12/25 23:33:04;;;;;;;6.07;4.70;;;19.90;70.70;;;;;;5028235;28;20415;-69
2021/12/25 23:35:29;;;;;;;8.10;4.73;;;20.00;70.20;;;;;;5030129;28;20435;-69
2021/12/25 23:37:55;;;;;;;7.40;4.87;;;20.30;71.00;;;;;;5028672;28;20968;-69
2021/12/25 23:40:21;;;;;;;5.40;4.20;;;20.30;70.10;;;;;;5028326;28;20672;-69
2021/12/25 23:42:50;;;;;;;6.33;4.30;;;20.50;70.50;;;;;;5028356;28;20168;-69
2021/12/25 23:45:22;;;;;;;7.70;5.10;;;20.20;70.40;;;;;;5046023;28;20457;-69
2021/12/25 23:47:50;;;;;;;6.23;3.90;;;20.40;65.80;;;;;;5048153;28;20433;-69
2021/12/25 23:50:16;;;;;;;6.60;4.30;;;20.10;71.20;;;;;;5047686;28;20418;-69
2021/12/25 23:52:42;;;;;;;6.07;4.20;;;19.80;71.20;;;;;;5048017;28;20450;-68
2021/12/25 23:55:08;;;;;;;5.40;4.57;;;20.40;65.80;;;;;;5046094;28;20466;-69
2021/12/25 23:57:35;;;;;;;5.70;3.83;;;20.00;70.40;;;;;;5047631;28;20172;-69
